Time;durP1;ratioP1;P1;durP2;ratioP2;P2;SDS_P1;SDS_P2;PMS_P1;PMS_P2;Temp;Humidity;BMP_temperature;BMP_pressure;BME280_temperature;BME280_humidity;BME280_pressure;Samples;Min_cycle;Max_cycle;Signal;HPM_P1;HPM_P2
2022/03/13 00:01:24;;;;;;;13.07;6.50;;;;;;;;;;5087264;28;20066;-76
2022/03/13 00:03:52;;;;;;;12.30;6.50;;;;;;;;;;5092634;28;20411;-75
2022/03/13 00:06:28;;;;;;;14.60;7.80;;;;;;;;;;5096696;28;20488;-75
2022/03/13 00:08:55;;;;;;;9.95;5.60;;;;;;;;;;5094548;28;20071;-75
2022/03/13 00:11:22;;;;;;;14.00;6.63;;;;;;;;;;5097756;28;20036;-75
2022/03/13 00:13:51;;;;;;;13.77;6.25;;;;;;;;;;5091239;28;20054;-75
2022/03/13 00:16:18;;;;;;;13.27;6.22;;;;;;;;;;5096416;28;20036;-75
2022/03/13 00:18:47;;;;;;;11.55;5.82;;;;;;;;;;5097537;28;20047;-75
2022/03/13 00:21:15;;;;;;;15.02;8.10;;;;;;;;;;5079996;28;20127;-75
2022/03/13 00:23:43;;;;;;;12.65;6.13;;;;;;;;;;5076139;28;20072;-75
2022/03/13 00:26:10;;;;;;;10.15;4.75;;;;;;;;;;5089140;28;20067;-75
2022/03/13 00:28:37;;;;;;;11.65;5.15;;;;;;;;;;5097136;28;20048;-75
2022/03/13 00:31:05;;;;;;;13.30;5.38;;;;;;;;;;5094408;28;20040;-75
2022/03/13 00:33:31;;;;;;;11.23;5.50;;;;;;;;;;5097297;28;20067;-75
2022/03/13 00:35:58;;;;;;;10.85;5.88;;;;;;;;;;5093533;28;20071;-75
2022/03/13 00:38:26;;;;;;;18.80;6.80;;;;;;;;;;5079088;28;20072;-75
2022/03/13 00:40:53;;;;;;;12.05;5.53;;;;;;;;;;5075843;28;20489;-75
2022/03/13 00:43:20;;;;;;;11.30;6.60;;;;;;;;;;5076864;28;20361;-75
2022/03/13 00:45:47;;;;;;;11.55;6.00;;;;;;;;;;5079498;28;20044;-76
2022/03/13 00:48:13;;;;;;;12.20;6.65;;;;;;;;;;5092591;28;20095;-75
2022/03/13 00:50:40;;;;;;;13.85;5.75;;;;;;;;;;5076672;28;20118;-76
2022/03/13 00:53:06;;;;;;;14.57;6.72;;;;;;;;;;5096784;28;20068;-75
2022/03/13 00:55:34;;;;;;;12.57;6.20;;;;;;;;;;5092680;28;20117;-76
2022/03/13 00:58:01;;;;;;;13.60;5.47;;;;;;;;;;5096536;28;20072;-75
2022/03/13 01:00:28;;;;;;;11.32;6.35;;;;;;;;;;5094129;28;20076;-76
2022/03/13 01:02:55;;;;;;;12.07;5.97;;;;;;;;;;5086388;28;20064;-76
2022/03/13 01:05:24;;;;;;;11.45;5.68;;;;;;;;;;5094317;28;20044;-75
2022/03/13 01:07:51;;;;;;;10.48;5.10;;;;;;;;;;5093782;28;20131;-75
2022/03/13 01:10:18;;;;;;;13.20;6.45;;;;;;;;;;5094336;28;20074;-75
2022/03/13 01:12:46;;;;;;;13.98;6.53;;;;;;;;;;5094219;28;20403;-75
2022/03/13 01:15:12;;;;;;;11.30;5.13;;;;;;;;;;5093743;28;20040;-75
2022/03/13 01:17:39;;;;;;;15.05;7.20;;;;;;;;;;5094442;28;20070;-75
2022/03/13 01:20:13;;;;;;;12.77;6.15;;;;;;;;;;5096361;28;20131;-75
2022/03/13 01:22:40;;;;;;;13.68;6.47;;;;;;;;;;5095492;28;20079;-75
2022/03/13 01:25:07;;;;;;;11.70;5.38;;;;;;;;;;5096015;28;20067;-75
2022/03/13 01:27:34;;;;;;;11.80;5.78;;;;;;;;;;5095708;28;20083;-76
2022/03/13 01:30:04;;;;;;;13.65;5.70;;;;;;;;;;5095921;28;20040;-75
2022/03/13 01:32:32;;;;;;;12.52;5.68;;;;;;;;;;5075533;28;20041;-75
2022/03/13 01:34:59;;;;;;;13.07;6.47;;;;;;;;;;5095783;28;20123;-76
2022/03/13 01:37:28;;;;;;;10.77;5.90;;;;;;;;;;5092219;28;20075;-76
2022/03/13 01:39:55;;;;;;;9.63;4.38;;;;;;;;;;5096005;28;20067;-76
2022/03/13 01:42:22;;;;;;;11.15;5.95;;;;;;;;;;5087946;28;20504;-76
2022/03/13 01:44:49;;;;;;;11.02;5.68;;;;;;;;;;5077092;28;20465;-76
2022/03/13 01:47:17;;;;;;;11.85;5.97;;;;;;;;;;5081661;28;20045;-75
2022/03/13 01:49:43;;;;;;;13.77;5.93;;;;;;;;;;5086340;28;20079;-75
2022/03/13 01:52:10;;;;;;;11.02;5.47;;;;;;;;;;5095436;28;20071;-75
2022/03/13 01:54:40;;;;;;;9.60;5.90;;;;;;;;;;5093145;28;20039;-75
2022/03/13 01:57:06;;;;;;;9.63;5.15;;;;;;;;;;5093761;28;20036;-75
2022/03/13 01:59:33;;;;;;;10.82;5.70;;;;;;;;;;5094482;28;20079;-75
2022/03/13 02:01:59;;;;;;;12.02;5.30;;;;;;;;;;5095046;28;20040;-75
2022/03/13 02:04:30;;;;;;;9.75;4.45;;;;;;;;;;5095209;28;20040;-75
2022/03/13 02:06:58;;;;;;;10.95;5.05;;;;;;;;;;5094663;28;20051;-75
2022/03/13 02:09:28;;;;;;;13.27;5.53;;;;;;;;;;5095510;28;20046;-76
2022/03/13 02:11:55;;;;;;;11.25;4.93;;;;;;;;;;5094282;28;20071;-75
2022/03/13 02:14:23;;;;;;;12.88;5.38;;;;;;;;;;5095054;28;20075;-75
2022/03/13 02:16:50;;;;;;;10.52;5.82;;;;;;;;;;5094976;28;20047;-76
2022/03/13 02:19:17;;;;;;;11.68;5.32;;;;;;;;;;5095292;28;20097;-76
2022/03/13 02:21:48;;;;;;;9.48;4.78;;;;;;;;;;5092578;28;20071;-76
2022/03/13 02:24:17;;;;;;;10.15;6.00;;;;;;;;;;5092557;28;20036;-75
2022/03/13 02:26:47;;;;;;;9.27;4.70;;;;;;;;;;5094833;28;20071;-76
2022/03/13 02:29:15;;;;;;;10.93;4.80;;;;;;;;;;5091512;28;20044;-75
2022/03/13 02:31:43;;;;;;;9.90;5.40;;;;;;;;;;5094863;28;20043;-75
2022/03/13 02:34:13;;;;;;;9.07;5.15;;;;;;;;;;5094985;28;20075;-75
2022/03/13 02:36:57;;;;;;;10.23;5.15;;;;;;;;;;5091398;28;20468;-76
2022/03/13 02:39:26;;;;;;;11.77;5.20;;;;;;;;;;5094195;28;20050;-76
2022/03/13 02:41:52;;;;;;;12.07;5.75;;;;;;;;;;5094147;28;20043;-76
2022/03/13 02:44:19;;;;;;;9.88;5.25;;;;;;;;;;5093806;28;20076;-76
2022/03/13 02:46:58;;;;;;;10.30;5.65;;;;;;;;;;5091216;28;20075;-76
2022/03/13 02:49:27;;;;;;;10.15;5.20;;;;;;;;;;5072410;28;20076;-76
2022/03/13 02:51:55;;;;;;;9.52;4.95;;;;;;;;;;5074674;28;20076;-76
2022/03/13 02:54:22;;;;;;;10.98;5.07;;;;;;;;;;5073524;28;20071;-76
2022/03/13 02:56:51;;;;;;;9.25;5.13;;;;;;;;;;5077600;28;20453;-76
2022/03/13 02:59:18;;;;;;;11.50;5.50;;;;;;;;;;5094753;28;20036;-76
2022/03/13 03:01:44;;;;;;;9.85;5.68;;;;;;;;;;5094448;28;20079;-76
2022/03/13 03:04:12;;;;;;;10.68;5.43;;;;;;;;;;5094431;28;20044;-76
2022/03/13 03:06:40;;;;;;;14.02;5.45;;;;;;;;;;5094650;28;20440;-76
2022/03/13 03:09:07;;;;;;;8.73;4.53;;;;;;;;;;5093832;28;20040;-76
2022/03/13 03:11:34;;;;;;;9.55;4.97;;;;;;;;;;5093807;28;20079;-76
2022/03/13 03:14:03;;;;;;;13.27;6.65;;;;;;;;;;5094234;28;20071;-76
2022/03/13 03:16:30;;;;;;;10.23;5.07;;;;;;;;;;5094523;28;20072;-76
2022/03/13 03:18:57;;;;;;;11.27;5.45;;;;;;;;;;5096361;28;20093;-76
2022/03/13 03:21:24;;;;;;;11.05;5.28;;;;;;;;;;5098359;28;20083;-76
2022/03/13 03:23:51;;;;;;;10.20;5.50;;;;;;;;;;5096266;28;20447;-76
2022/03/13 03:26:18;;;;;;;11.95;5.10;;;;;;;;;;5097513;28;20464;-76
2022/03/13 03:28:45;;;;;;;9.73;5.22;;;;;;;;;;5097720;28;20044;-76
2022/03/13 03:31:13;;;;;;;9.35;5.57;;;;;;;;;;5096502;28;20122;-76
2022/03/13 03:33:39;;;;;;;8.43;4.97;;;;;;;;;;5098424;28;20238;-76
2022/03/13 03:36:06;;;;;;;10.63;5.25;;;;;;;;;;5096299;28;20433;-76
2022/03/13 03:38:33;;;;;;;9.68;4.85;;;;;;;;;;5098054;28;20079;-76
2022/03/13 03:40:59;;;;;;;9.25;4.88;;;;;;;;;;5095917;28;20076;-76
2022/03/13 03:43:26;;;;;;;9.93;4.90;;;;;;;;;;5097119;28;20047;-76
2022/03/13 03:45:52;;;;;;;13.02;5.95;;;;;;;;;;5098311;28;20040;-76
2022/03/13 03:48:22;;;;;;;12.40;5.60;;;;;;;;;;5076205;28;20110;-76
2022/03/13 03:50:48;;;;;;;9.23;5.35;;;;;;;;;;5059073;28;20044;-76
2022/03/13 03:53:15;;;;;;;12.23;6.15;;;;;;;;;;5056308;28;20072;-76
2022/03/13 03:55:41;;;;;;;11.25;4.95;;;;;;;;;;5068414;28;20087;-76
2022/03/13 03:58:08;;;;;;;10.63;5.15;;;;;;;;;;5077682;28;20072;-76
2022/03/13 04:00:34;;;;;;;11.25;6.22;;;;;;;;;;5076528;28;20488;-76
2022/03/13 04:03:01;;;;;;;9.45;4.95;;;;;;;;;;5077603;28;20068;-76
2022/03/13 04:05:29;;;;;;;8.90;5.00;;;;;;;;;;5076466;28;20476;-76
2022/03/13 04:07:55;;;;;;;11.63;4.97;;;;;;;;;;5076716;28;20091;-76
2022/03/13 04:10:22;;;;;;;8.30;4.63;;;;;;;;;;5077139;28;20041;-76
2022/03/13 04:12:48;;;;;;;13.40;5.65;;;;;;;;;;5058117;28;20102;-76
2022/03/13 04:15:15;;;;;;;9.32;4.95;;;;;;;;;;5059310;28;20044;-76
2022/03/13 04:17:41;;;;;;;11.05;5.00;;;;;;;;;;5074980;28;20075;-76
2022/03/13 04:20:09;;;;;;;9.43;4.72;;;;;;;;;;5076102;28;20074;-76
2022/03/13 04:22:37;;;;;;;8.07;4.18;;;;;;;;;;5076984;28;20045;-76
2022/03/13 04:25:05;;;;;;;8.93;4.63;;;;;;;;;;5077162;28;20074;-76
2022/03/13 04:27:32;;;;;;;17.90;7.10;;;;;;;;;;5076894;28;20412;-76
2022/03/13 04:29:59;;;;;;;9.60;4.63;;;;;;;;;;5072432;28;20082;-76
2022/03/13 04:32:26;;;;;;;12.40;6.07;;;;;;;;;;5075978;28;20094;-76
2022/03/13 04:34:53;;;;;;;10.10;5.38;;;;;;;;;;5076651;28;20098;-76
2022/03/13 04:37:20;;;;;;;14.48;6.25;;;;;;;;;;5075956;28;20090;-76
2022/03/13 04:39:51;;;;;;;11.95;5.28;;;;;;;;;;5074411;28;20076;-76
2022/03/13 04:42:17;;;;;;;11.35;5.15;;;;;;;;;;5077040;28;20051;-76
2022/03/13 04:44:44;;;;;;;9.45;4.57;;;;;;;;;;5076096;28;20083;-76
2022/03/13 04:47:11;;;;;;;11.52;4.82;;;;;;;;;;5064374;28;20076;-76
2022/03/13 04:49:37;;;;;;;10.40;4.72;;;;;;;;;;5068213;28;20137;-76
2022/03/13 04:52:05;;;;;;;10.95;5.20;;;;;;;;;;5095793;28;20080;-76
2022/03/13 04:54:32;;;;;;;11.02;5.65;;;;;;;;;;5096952;28;20101;-76
2022/03/13 04:57:00;;;;;;;10.13;4.82;;;;;;;;;;5096705;28;20105;-76
2022/03/13 04:59:26;;;;;;;11.18;5.90;;;;;;;;;;5095691;28;20091;-76
2022/03/13 05:01:53;;;;;;;10.45;4.97;;;;;;;;;;5094241;28;20071;-76
2022/03/13 05:04:19;;;;;;;10.85;5.53;;;;;;;;;;5096819;28;20361;-76
2022/03/13 05:06:46;;;;;;;12.32;5.65;;;;;;;;;;5095827;28;20043;-76
2022/03/13 05:09:12;;;;;;;8.20;4.78;;;;;;;;;;5095793;28;20040;-76
2022/03/13 05:11:39;;;;;;;11.38;5.03;;;;;;;;;;5094058;28;20036;-76
2022/03/13 05:14:07;;;;;;;9.88;4.90;;;;;;;;;;5096185;28;20342;-76
2022/03/13 05:16:34;;;;;;;9.77;5.05;;;;;;;;;;5095591;28;20488;-76
2022/03/13 05:19:01;;;;;;;9.73;4.80;;;;;;;;;;5093600;28;20098;-76
2022/03/13 05:21:28;;;;;;;11.63;5.63;;;;;;;;;;5078502;28;20053;-76
2022/03/13 05:23:54;;;;;;;9.65;4.57;;;;;;;;;;5075857;28;20102;-76
2022/03/13 05:26:21;;;;;;;9.15;5.15;;;;;;;;;;5074972;28;20048;-76
2022/03/13 05:28:48;;;;;;;10.65;6.05;;;;;;;;;;5080516;28;20048;-76
2022/03/13 05:31:16;;;;;;;9.13;4.65;;;;;;;;;;5074815;28;20485;-76
2022/03/13 05:33:42;;;;;;;11.55;5.38;;;;;;;;;;5075585;28;20071;-76
2022/03/13 05:36:09;;;;;;;11.40;5.32;;;;;;;;;;5074734;28;20082;-76
2022/03/13 05:38:37;;;;;;;10.60;5.40;;;;;;;;;;5079680;28;20071;-76
2022/03/13 05:41:06;;;;;;;9.05;5.03;;;;;;;;;;5095904;28;20097;-76
2022/03/13 05:43:33;;;;;;;9.13;4.82;;;;;;;;;;5095995;28;20047;-76
2022/03/13 05:45:59;;;;;;;12.68;5.13;;;;;;;;;;5093876;28;20083;-77
2022/03/13 05:48:30;;;;;;;11.30;5.63;;;;;;;;;;5093587;28;20071;-77
2022/03/13 05:50:57;;;;;;;13.80;5.90;;;;;;;;;;5096217;28;20051;-76
2022/03/13 05:53:23;;;;;;;9.93;4.82;;;;;;;;;;5093338;28;20105;-77
2022/03/13 05:55:50;;;;;;;8.93;4.75;;;;;;;;;;5095708;28;20119;-76
2022/03/13 05:58:19;;;;;;;11.57;5.43;;;;;;;;;;5095773;28;20066;-77
2022/03/13 06:00:55;;;;;;;11.73;5.70;;;;;;;;;;5096042;28;20040;-76
2022/03/13 06:03:21;;;;;;;11.13;5.55;;;;;;;;;;5094806;28;20040;-76
2022/03/13 06:05:56;;;;;;;13.63;5.68;;;;;;;;;;5095935;28;20073;-76
2022/03/13 06:08:29;;;;;;;9.38;4.65;;;;;;;;;;5095323;28;20388;-76
2022/03/13 06:10:59;;;;;;;7.70;4.50;;;;;;;;;;5094344;28;20548;-76
2022/03/13 06:13:25;;;;;;;10.00;5.32;;;;;;;;;;5092463;28;20067;-76
2022/03/13 06:15:52;;;;;;;9.15;4.55;;;;;;;;;;5092610;28;20067;-76
2022/03/13 06:18:19;;;;;;;11.50;5.63;;;;;;;;;;5086611;28;20068;-76
2022/03/13 06:20:45;;;;;;;8.68;5.15;;;;;;;;;;5080986;28;20078;-76
2022/03/13 06:23:13;;;;;;;10.85;5.40;;;;;;;;;;5085626;28;20102;-76
2022/03/13 06:25:40;;;;;;;8.45;5.40;;;;;;;;;;5073876;28;20037;-76
2022/03/13 06:28:07;;;;;;;10.80;4.80;;;;;;;;;;5072544;28;20049;-76
2022/03/13 06:30:34;;;;;;;9.00;4.35;;;;;;;;;;5074039;28;20105;-76
2022/03/13 06:33:00;;;;;;;11.20;4.78;;;;;;;;;;5073741;28;20047;-76
2022/03/13 06:35:27;;;;;;;8.95;5.15;;;;;;;;;;5079293;28;20074;-76
2022/03/13 06:37:54;;;;;;;11.43;4.88;;;;;;;;;;5074645;28;20045;-76
2022/03/13 06:40:23;;;;;;;9.43;5.53;;;;;;;;;;5082330;28;20170;-76
2022/03/13 06:42:51;;;;;;;9.50;4.53;;;;;;;;;;5072269;28;20086;-76
2022/03/13 06:45:18;;;;;;;15.75;5.72;;;;;;;;;;5071826;28;20050;-76
2022/03/13 06:47:49;;;;;;;11.60;4.70;;;;;;;;;;5079838;28;20098;-76
2022/03/13 06:50:17;;;;;;;10.95;5.07;;;;;;;;;;5084784;28;20057;-76
2022/03/13 06:52:44;;;;;;;10.63;4.88;;;;;;;;;;5084599;28;20472;-76
2022/03/13 06:55:12;;;;;;;9.85;5.05;;;;;;;;;;5081648;28;20068;-76
2022/03/13 06:57:40;;;;;;;11.05;5.10;;;;;;;;;;5079990;28;20045;-76
2022/03/13 07:00:08;;;;;;;10.10;4.88;;;;;;;;;;5075650;28;20072;-76
2022/03/13 07:02:34;;;;;;;13.30;5.63;;;;;;;;;;5084160;28;20083;-76
2022/03/13 07:05:01;;;;;;;11.30;5.68;;;;;;;;;;5084129;28;20037;-76
2022/03/13 07:07:28;;;;;;;15.23;7.20;;;;;;;;;;5079771;28;20481;-77
2022/03/13 07:09:57;;;;;;;16.58;7.60;;;;;;;;;;5084678;28;20052;-77
2022/03/13 07:12:24;;;;;;;14.38;8.30;;;;;;;;;;5082797;28;20040;-77
2022/03/13 07:14:52;;;;;;;13.73;7.30;;;;;;;;;;5083835;28;20081;-76
2022/03/13 07:17:19;;;;;;;14.88;7.88;;;;;;;;;;5091038;28;20044;-76
2022/03/13 07:19:45;;;;;;;13.18;7.32;;;;;;;;;;5081708;28;20689;-79
2022/03/13 07:22:13;;;;;;;13.75;8.13;;;;;;;;;;5091976;28;20050;-76
2022/03/13 07:24:39;;;;;;;13.75;7.15;;;;;;;;;;5071444;28;20044;-77
2022/03/13 07:27:06;;;;;;;14.40;7.60;;;;;;;;;;5091645;28;20075;-76
2022/03/13 07:29:32;;;;;;;14.23;7.82;;;;;;;;;;5082588;28;20040;-76
2022/03/13 07:32:00;;;;;;;14.10;8.38;;;;;;;;;;5079549;28;20109;-76
2022/03/13 07:34:28;;;;;;;15.48;7.63;;;;;;;;;;5089849;28;20164;-76
2022/03/13 07:36:54;;;;;;;21.45;10.85;;;;;;;;;;5071743;28;20072;-76
2022/03/13 07:39:22;;;;;;;14.48;8.70;;;;;;;;;;5071449;28;20086;-76
2022/03/13 07:41:48;;;;;;;15.80;9.27;;;;;;;;;;5071426;28;20094;-78
2022/03/13 07:44:15;;;;;;;15.85;8.70;;;;;;;;;;5091018;28;20067;-76
2022/03/13 07:46:42;;;;;;;15.00;9.27;;;;;;;;;;5084343;28;20476;-76
2022/03/13 07:49:10;;;;;;;17.17;9.07;;;;;;;;;;5071039;28;20084;-76
2022/03/13 07:51:36;;;;;;;15.90;8.80;;;;;;;;;;5076888;28;20086;-76
2022/03/13 07:54:03;;;;;;;15.48;9.05;;;;;;;;;;5070382;28;20082;-76
2022/03/13 07:56:30;;;;;;;17.75;10.18;;;;;;;;;;5071501;28;20036;-76
2022/03/13 07:58:57;;;;;;;22.20;10.13;;;;;;;;;;5070349;28;20076;-76
2022/03/13 08:01:24;;;;;;;17.52;10.80;;;;;;;;;;5071500;28;20076;-76
2022/03/13 08:03:51;;;;;;;19.13;10.88;;;;;;;;;;5070612;28;20071;-76
2022/03/13 08:06:19;;;;;;;19.85;10.23;;;;;;;;;;5091561;28;20036;-76
2022/03/13 08:08:45;;;;;;;17.08;9.48;;;;;;;;;;5086658;28;20070;-76
2022/03/13 08:11:12;;;;;;;15.95;9.02;;;;;;;;;;5094158;28;20043;-75
2022/03/13 08:13:39;;;;;;;23.08;9.65;;;;;;;;;;5094200;28;20484;-75
2022/03/13 08:16:05;;;;;;;17.92;10.13;;;;;;;;;;5094724;28;20075;-77
2022/03/13 08:18:35;;;;;;;20.23;10.10;;;;;;;;;;5095118;28;20540;-77
2022/03/13 08:21:02;;;;;;;21.67;11.43;;;;;;;;;;5088845;28;20039;-79
2022/03/13 08:23:31;;;;;;;20.60;11.43;;;;;;;;;;5096498;28;20032;-79
2022/03/13 08:26:03;;;;;;;16.48;11.38;;;;;;;;;;5123909;22;20049;31
2022/03/13 08:28:44;;;;;;;22.15;12.05;;;;;;;;;;4977638;28;20082;-84
2022/03/13 08:31:11;;;;;;;23.10;12.05;;;;;;;;;;4979159;28;20049;-80
2022/03/13 08:33:42;;;;;;;21.70;12.52;;;;;;;;;;4981052;28;20046;-81
2022/03/13 08:36:08;;;;;;;20.23;11.93;;;;;;;;;;4980814;28;20046;-80
2022/03/13 08:38:36;;;;;;;22.25;12.70;;;;;;;;;;4962711;28;20149;-79
2022/03/13 08:41:03;;;;;;;18.08;12.25;;;;;;;;;;4980428;28;20046;-79
2022/03/13 08:43:30;;;;;;;20.83;12.73;;;;;;;;;;4980150;28;20070;-78
2022/03/13 08:45:56;;;;;;;22.25;12.95;;;;;;;;;;4978623;28;20495;-79
2022/03/13 08:48:23;;;;;;;20.15;12.48;;;;;;;;;;4978908;28;20097;-77
2022/03/13 08:50:50;;;;;;;24.58;13.45;;;;;;;;;;4978287;28;20038;-77
2022/03/13 08:53:16;;;;;;;23.42;13.73;;;;;;;;;;4978299;28;20047;-77
2022/03/13 08:55:44;;;;;;;23.80;13.30;;;;;;;;;;4978901;28;20074;-81
2022/03/13 08:58:11;;;;;;;23.17;12.75;;;;;;;;;;4979376;28;20051;-78
2022/03/13 09:00:37;;;;;;;23.45;12.88;;;;;;;;;;4979152;28;20074;-79
2022/03/13 09:03:05;;;;;;;19.50;12.00;;;;;;;;;;4978147;28;20039;-78
2022/03/13 09:05:32;;;;;;;19.80;12.88;;;;;;;;;;4978417;28;20510;-78
2022/03/13 09:07:59;;;;;;;25.65;14.10;;;;;;;;;;4977948;28;20479;-78
2022/03/13 09:10:25;;;;;;;22.98;13.25;;;;;;;;;;4978972;28;20042;-78
2022/03/13 09:12:54;;;;;;;19.23;12.13;;;;;;;;;;4978805;28;20047;-78
2022/03/13 09:15:20;;;;;;;23.98;13.30;;;;;;;;;;4979000;28;20391;-78
2022/03/13 09:17:53;;;;;;;22.42;13.80;;;;;;;;;;4979260;28;20397;-77
2022/03/13 09:20:20;;;;;;;22.33;12.57;;;;;;;;;;4977224;28;20484;-77
2022/03/13 09:22:47;;;;;;;21.95;13.02;;;;;;;;;;4979439;28;20070;-80
2022/03/13 09:25:14;;;;;;;21.50;12.98;;;;;;;;;;4980434;28;20482;-77
2022/03/13 09:27:41;;;;;;;21.17;12.75;;;;;;;;;;4962014;28;20055;-78
2022/03/13 09:30:11;;;;;;;20.60;12.60;;;;;;;;;;4978770;28;20057;-78
2022/03/13 09:32:37;;;;;;;20.40;13.32;;;;;;;;;;4978366;28;20106;-77
2022/03/13 09:35:05;;;;;;;21.88;13.00;;;;;;;;;;4977930;28;20082;-77
2022/03/13 09:37:32;;;;;;;19.73;12.43;;;;;;;;;;4978066;28;20074;-77
2022/03/13 09:39:59;;;;;;;20.33;12.55;;;;;;;;;;4977639;28;20057;-77
2022/03/13 09:42:25;;;;;;;23.77;12.02;;;;;;;;;;4977450;28;20039;-78
2022/03/13 09:44:52;;;;;;;21.00;10.88;;;;;;;;;;4977982;28;20407;-78
2022/03/13 09:47:21;;;;;;;21.85;12.93;;;;;;;;;;4977002;28;20467;-77
2022/03/13 09:49:48;;;;;;;18.88;11.75;;;;;;;;;;4977838;28;20109;-78
2022/03/13 09:52:14;;;;;;;16.30;10.38;;;;;;;;;;4977583;28;20045;-77
2022/03/13 09:54:41;;;;;;;17.50;11.88;;;;;;;;;;4978200;28;20085;-78
2022/03/13 09:57:08;;;;;;;19.00;11.32;;;;;;;;;;4977426;28;20051;-78
2022/03/13 09:59:35;;;;;;;18.25;11.60;;;;;;;;;;4977364;28;20536;-78
2022/03/13 10:02:04;;;;;;;16.52;11.30;;;;;;;;;;4976920;28;20097;-78
2022/03/13 10:04:32;;;;;;;19.05;12.70;;;;;;;;;;4977802;28;20086;-77
2022/03/13 10:07:04;;;;;;;20.05;10.93;;;;;;;;;;4976494;28;20090;-78
2022/03/13 10:09:35;;;;;;;17.52;11.00;;;;;;;;;;4959242;28;20499;-78
2022/03/13 10:12:10;;;;;;;16.73;11.13;;;;;;;;;;4977155;28;20078;-78
2022/03/13 10:14:39;;;;;;;16.33;9.60;;;;;;;;;;4977611;28;20376;-78
2022/03/13 10:17:06;;;;;;;15.35;10.30;;;;;;;;;;4977057;28;20047;-78
2022/03/13 10:19:34;;;;;;;14.38;10.50;;;;;;;;;;4977070;28;20078;-78
2022/03/13 10:22:07;;;;;;;16.92;10.20;;;;;;;;;;4977043;28;20106;-78
2022/03/13 10:24:41;;;;;;;12.90;8.40;;;;;;;;;;4976869;28;20053;-79
2022/03/13 10:27:13;;;;;;;15.00;9.45;;;;;;;;;;4983789;28;20101;-81
2022/03/13 10:29:40;;;;;;;13.30;8.48;;;;;;;;;;4987588;28;20509;-79
2022/03/13 10:32:07;;;;;;;13.57;8.88;;;;;;;;;;4996602;28;20399;-81
2022/03/13 10:34:36;;;;;;;13.00;8.65;;;;;;;;;;4995303;28;20475;-78
2022/03/13 10:37:04;;;;;;;13.48;8.30;;;;;;;;;;4996404;28;20046;-78
2022/03/13 10:39:31;;;;;;;14.38;8.98;;;;;;;;;;4996729;28;20084;-78
2022/03/13 10:42:01;;;;;;;14.02;7.97;;;;;;;;;;4997223;28;20074;-79
2022/03/13 10:44:31;;;;;;;12.13;7.57;;;;;;;;;;4998206;28;20078;-79
2022/03/13 10:47:04;;;;;;;11.57;7.45;;;;;;;;;;5002602;28;20093;-78
2022/03/13 10:49:45;;;;;;;11.45;7.28;;;;;;;;;;5004223;28;20046;-78
2022/03/13 10:52:25;;;;;;;12.98;8.25;;;;;;;;;;4980256;28;20054;-78
2022/03/13 10:54:52;;;;;;;12.07;8.02;;;;;;;;;;4997427;28;20105;-78
2022/03/13 10:57:19;;;;;;;11.98;8.45;;;;;;;;;;4997377;28;20081;-77
2022/03/13 10:59:46;;;;;;;12.98;8.40;;;;;;;;;;4996062;28;20077;-77
2022/03/13 11:02:14;;;;;;;13.55;7.53;;;;;;;;;;4996723;28;20042;-77
2022/03/13 11:04:51;;;;;;;12.43;7.93;;;;;;;;;;4996515;28;20043;-77
2022/03/13 11:07:18;;;;;;;11.93;8.23;;;;;;;;;;4996622;28;20361;-77
2022/03/13 11:09:45;;;;;;;14.57;8.70;;;;;;;;;;4995495;28;20553;-79
2022/03/13 11:12:16;;;;;;;13.65;8.60;;;;;;;;;;4995344;28;20082;-78
2022/03/13 11:14:43;;;;;;;12.65;8.50;;;;;;;;;;4996323;28;20360;-77
2022/03/13 11:17:11;;;;;;;13.00;8.85;;;;;;;;;;4994665;28;20129;-76
2022/03/13 11:19:38;;;;;;;14.20;10.50;;;;;;;;;;4995282;28;20088;-77
2022/03/13 11:22:07;;;;;;;12.18;8.43;;;;;;;;;;4995478;28;20096;-78
2022/03/13 11:24:36;;;;;;;14.20;9.45;;;;;;;;;;4994715;28;20078;-78
2022/03/13 11:27:11;;;;;;;13.23;8.90;;;;;;;;;;4993644;28;20050;-76
2022/03/13 11:29:45;;;;;;;13.80;9.85;;;;;;;;;;4995152;28;20046;-76
2022/03/13 11:32:31;;;;;;;15.32;9.43;;;;;;;;;;4994967;28;20043;-77
2022/03/13 11:35:20;;;;;;;13.32;9.13;;;;;;;;;;4995312;28;20043;-77
2022/03/13 11:37:49;;;;;;;14.73;9.65;;;;;;;;;;4995806;28;20039;-80
2022/03/13 11:40:17;;;;;;;14.05;9.57;;;;;;;;;;4998791;28;20088;-79
2022/03/13 11:42:48;;;;;;;16.85;10.10;;;;;;;;;;4999696;28;20069;-78
2022/03/13 11:45:33;;;;;;;18.00;11.25;;;;;;;;;;4999336;28;20081;-80
2022/03/13 11:48:39;;;;;;;16.35;12.02;;;;;;;;;;4981330;28;20050;-79
2022/03/13 11:51:07;;;;;;;20.60;10.27;;;;;;;;;;4998420;28;20042;-79
2022/03/13 11:53:46;;;;;;;13.70;9.63;;;;;;;;;;4998741;28;20046;-79
2022/03/13 11:56:21;;;;;;;16.55;11.43;;;;;;;;;;4998406;28;20548;-78
2022/03/13 11:58:49;;;;;;;15.23;8.98;;;;;;;;;;4999058;28;20042;-79
2022/03/13 12:01:18;;;;;;;14.55;9.10;;;;;;;;;;4998044;28;20562;-78
2022/03/13 12:04:24;;;;;;;12.18;7.78;;;;;;;;;;4998624;28;20391;-78
2022/03/13 12:06:53;;;;;;;11.38;7.45;;;;;;;;;;4999334;28;20100;-77
2022/03/13 12:09:27;;;;;;;12.30;8.10;;;;;;;;;;4999142;28;20046;-78
2022/03/13 12:12:01;;;;;;;12.52;7.93;;;;;;;;;;4998945;28;20070;-78
2022/03/13 12:14:53;;;;;;;12.35;7.78;;;;;;;;;;4998030;28;20046;-77
2022/03/13 12:17:20;;;;;;;14.65;8.88;;;;;;;;;;4998498;28;20043;-77
2022/03/13 12:19:47;;;;;;;15.20;9.45;;;;;;;;;;4997996;28;20133;-77
2022/03/13 12:22:15;;;;;;;14.30;10.23;;;;;;;;;;4998488;28;20038;-77
2022/03/13 12:24:50;;;;;;;17.95;10.07;;;;;;;;;;4998337;28;20046;-77
2022/03/13 12:27:17;;;;;;;13.18;9.13;;;;;;;;;;4997341;28;20081;-77
2022/03/13 12:29:44;;;;;;;14.23;10.20;;;;;;;;;;4997727;28;20101;-77
2022/03/13 12:32:11;;;;;;;13.90;9.60;;;;;;;;;;4997487;28;20057;-77
2022/03/13 12:34:40;;;;;;;12.20;8.38;;;;;;;;;;4997921;28;20371;-76
2022/03/13 12:37:08;;;;;;;14.95;9.68;;;;;;;;;;4997745;28;20048;-76
2022/03/13 12:39:35;;;;;;;14.57;8.75;;;;;;;;;;4997522;28;20104;-76
2022/03/13 12:42:04;;;;;;;16.58;9.50;;;;;;;;;;4996645;28;20451;-76
2022/03/13 12:44:32;;;;;;;17.08;10.65;;;;;;;;;;4997745;28;20038;-76
2022/03/13 12:46:59;;;;;;;15.00;10.57;;;;;;;;;;4997592;28;20100;-76
2022/03/13 12:49:27;;;;;;;16.23;9.40;;;;;;;;;;4996776;28;20133;-77
2022/03/13 12:51:54;;;;;;;13.73;9.25;;;;;;;;;;4997157;28;20382;-77
2022/03/13 12:54:27;;;;;;;15.27;9.38;;;;;;;;;;4996552;28;20482;-77
2022/03/13 12:56:55;;;;;;;15.77;10.50;;;;;;;;;;4996465;28;20439;-77
2022/03/13 12:59:28;;;;;;;17.55;10.65;;;;;;;;;;4997405;28;20130;-76
2022/03/13 13:02:05;;;;;;;14.35;10.10;;;;;;;;;;4996579;28;20046;-76
2022/03/13 13:04:32;;;;;;;16.33;10.52;;;;;;;;;;4997216;28;20089;-76
2022/03/13 13:06:59;;;;;;;13.32;9.38;;;;;;;;;;4997086;28;20084;-77
2022/03/13 13:09:29;;;;;;;13.68;10.00;;;;;;;;;;4996376;28;20491;-76
2022/03/13 13:11:55;;;;;;;15.82;8.85;;;;;;;;;;4996593;28;20491;-77
2022/03/13 13:14:24;;;;;;;13.70;8.45;;;;;;;;;;4997942;28;20471;-77
2022/03/13 13:16:52;;;;;;;13.73;8.07;;;;;;;;;;4999522;28;20101;-78
2022/03/13 13:19:19;;;;;;;14.82;8.50;;;;;;;;;;4999898;28;20042;-78
2022/03/13 13:21:55;;;;;;;17.30;9.30;;;;;;;;;;4999741;28;20496;-78
2022/03/13 13:24:25;;;;;;;13.88;8.50;;;;;;;;;;4997812;28;20483;-77
2022/03/13 13:26:51;;;;;;;14.85;8.43;;;;;;;;;;4997747;28;20113;-78
2022/03/13 13:29:31;;;;;;;12.00;7.68;;;;;;;;;;4998026;28;20530;-78
2022/03/13 13:32:24;;;;;;;13.10;8.07;;;;;;;;;;4997406;28;20438;-78
2022/03/13 13:35:04;;;;;;;11.23;7.95;;;;;;;;;;5001534;28;20100;-79
2022/03/13 13:37:31;;;;;;;13.02;7.10;;;;;;;;;;4998509;28;20042;-78
2022/03/13 13:40:06;;;;;;;11.52;7.88;;;;;;;;;;4996175;28;20046;-78
2022/03/13 13:42:35;;;;;;;15.02;7.88;;;;;;;;;;4997625;28;20137;-78
2022/03/13 13:45:03;;;;;;;10.55;6.85;;;;;;;;;;4998580;28;20045;-78
2022/03/13 13:47:31;;;;;;;9.68;7.22;;;;;;;;;;4997864;28;20097;-78
2022/03/13 13:49:57;;;;;;;10.50;7.28;;;;;;;;;;4997518;28;20053;-78
2022/03/13 13:52:30;;;;;;;13.32;7.63;;;;;;;;;;4998970;28;20050;-78
2022/03/13 13:54:56;;;;;;;11.30;7.97;;;;;;;;;;4996947;28;20521;-78
2022/03/13 13:57:23;;;;;;;11.70;7.60;;;;;;;;;;4997357;28;20081;-78
2022/03/13 13:59:50;;;;;;;14.02;8.73;;;;;;;;;;4997582;28;20050;-78
2022/03/13 14:02:18;;;;;;;9.82;6.57;;;;;;;;;;4996630;28;20078;-78
2022/03/13 14:04:50;;;;;;;11.15;7.32;;;;;;;;;;4997188;28;20438;-78
2022/03/13 14:07:16;;;;;;;15.30;8.65;;;;;;;;;;4997761;28;20042;-78
2022/03/13 14:09:46;;;;;;;10.20;6.70;;;;;;;;;;4996870;28;20486;-78
2022/03/13 14:12:17;;;;;;;13.45;7.50;;;;;;;;;;4997361;28;20100;-78
2022/03/13 14:14:43;;;;;;;12.07;7.03;;;;;;;;;;4997647;28;20077;-78
2022/03/13 14:17:10;;;;;;;10.02;7.20;;;;;;;;;;4999066;28;20042;-78
2022/03/13 14:19:37;;;;;;;12.02;7.72;;;;;;;;;;4998383;28;20067;-79
2022/03/13 14:22:06;;;;;;;10.43;6.82;;;;;;;;;;4999679;28;20043;-79
2022/03/13 14:24:34;;;;;;;10.27;7.00;;;;;;;;;;4999042;28;20050;-79
2022/03/13 14:27:00;;;;;;;11.18;7.32;;;;;;;;;;4996909;28;20565;-79
2022/03/13 14:29:27;;;;;;;11.20;7.07;;;;;;;;;;4998146;28;20042;-79
2022/03/13 14:31:54;;;;;;;9.75;7.00;;;;;;;;;;4996949;28;20073;-78
2022/03/13 14:34:20;;;;;;;14.15;7.05;;;;;;;;;;4997466;28;20105;-78
2022/03/13 14:36:48;;;;;;;11.98;7.30;;;;;;;;;;4998117;28;20073;-78